CheckWX is a tool to help pilots better visualize weather data.  It is not intended as a substitute for an official pre-flight weather briefing.

02:14:43 UTC

KLEW METAR
Auburn / Lewiston Municipal Airport
Auburn/Lewiston, Maine, USA
Current

19 mins ago

KLEW 180156Z AUTO 01003KT 10SM CLR M07/M12 A3006 RMK AO2 SLP195 T10671117 FZRANO
Observed
Feb-18 @ 01:56 UTC
Wind
  • 010° at 3 KTS
Visibility
10 SM
Flight Rules
VFR
Cloud Levels
  • Clear skies
Temperature
-7°C / 19°F
Dewpoint
-12°C / 10°F
Humidity
68%
Altimeter
30.06" Hg
Pressure
1019.5 hPa
Previous

1 hour ago

KLEW 180056Z AUTO 00000KT 10SM CLR M05/M12 A3006 RMK AO2 SLP196 T10501122 FZRANO
Observed
Feb-18 @ 00:56 UTC
Visibility
10 SM
Flight Rules
VFR
Cloud Levels
  • Clear skies
Temperature
-5°C / 23°F
Dewpoint
-12°C / 10°F
Humidity
58%
Altimeter
30.06" Hg
Pressure
1019.6 hPa
Previous

2 hours ago

KLEW 172356Z AUTO 11003KT 10SM CLR M03/M14 A3005 RMK AO2 SLP192 T10331139 11006 21039 56008 FZRANO
Observed
Feb-17 @ 23:56 UTC
Wind
  • 110° at 3 KTS
Visibility
10 SM
Flight Rules
VFR
Cloud Levels
  • Clear skies
Temperature
-3°C / 27°F
Dewpoint
-14°C / 7°F
Humidity
43%
Altimeter
30.05" Hg
Pressure
1019.2 hPa